sensor_id;sensor_type;location;lat;lon;timestamp;pressure;altitude;pressure_sealevel;temperature;humidity
10946;BME280;5525;42.648;23.368;2023-04-01T00:01:07;93786.81;;;11.23;100.00
10946;BME280;5525;42.648;23.368;2023-04-01T00:03:34;93786.81;;;11.23;100.00
10946;BME280;5525;42.648;23.368;2023-04-01T00:06:01;93800.84;;;11.29;100.00
10946;BME280;5525;42.648;23.368;2023-04-01T00:08:28;93812.28;;;11.22;100.00
10946;BME280;5525;42.648;23.368;2023-04-01T00:10:55;93812.25;;;11.07;100.00
10946;BME280;5525;42.648;23.368;2023-04-01T00:13:22;93809.13;;;11.05;100.00
10946;BME280;5525;42.648;23.368;2023-04-01T00:15:52;93802.75;;;10.97;100.00
10946;BME280;5525;42.648;23.368;2023-04-01T00:18:19;93796.63;;;10.85;100.00
10946;BME280;5525;42.648;23.368;2023-04-01T00:20:48;93797.31;;;10.82;100.00
10946;BME280;5525;42.648;23.368;2023-04-01T00:23:16;93809.84;;;10.74;100.00
10946;BME280;5525;42.648;23.368;2023-04-01T00:25:43;93804.69;;;10.69;100.00
10946;BME280;5525;42.648;23.368;2023-04-01T00:28:10;93808.81;;;10.79;100.00
10946;BME280;5525;42.648;23.368;2023-04-01T00:30:37;93810.38;;;10.80;100.00
10946;BME280;5525;42.648;23.368;2023-04-01T00:33:06;93804.63;;;10.81;100.00
10946;BME280;5525;42.648;23.368;2023-04-01T00:35:32;93810.66;;;10.90;100.00
10946;BME280;5525;42.648;23.368;2023-04-01T00:38:00;93795.66;;;10.77;100.00
10946;BME280;5525;42.648;23.368;2023-04-01T00:40:29;93803.94;;;10.84;100.00
10946;BME280;5525;42.648;23.368;2023-04-01T00:42:56;93793.94;;;10.85;100.00
10946;BME280;5525;42.648;23.368;2023-04-01T00:45:32;93794.59;;;10.66;100.00
10946;BME280;5525;42.648;23.368;2023-04-01T00:48:01;93791.03;;;10.50;100.00
10946;BME280;5525;42.648;23.368;2023-04-01T00:50:32;93782.06;;;10.74;100.00
10946;BME280;5525;42.648;23.368;2023-04-01T00:53:00;93778.16;;;10.71;100.00
10946;BME280;5525;42.648;23.368;2023-04-01T00:55:29;93776.56;;;10.70;100.00
10946;BME280;5525;42.648;23.368;2023-04-01T00:57:58;93772.75;;;10.71;100.00
10946;BME280;5525;42.648;23.368;2023-04-01T01:00:26;93764.91;;;10.82;100.00
10946;BME280;5525;42.648;23.368;2023-04-01T01:02:53;93771.94;;;10.71;100.00
10946;BME280;5525;42.648;23.368;2023-04-01T01:05:25;93772.47;;;10.61;100.00
10946;BME280;5525;42.648;23.368;2023-04-01T01:08:01;93765.66;;;10.51;100.00
10946;BME280;5525;42.648;23.368;2023-04-01T01:10:31;93751.47;;;10.54;100.00
10946;BME280;5525;42.648;23.368;2023-04-01T01:13:05;93758.25;;;10.48;100.00
10946;BME280;5525;42.648;23.368;2023-04-01T01:15:38;93735.22;;;10.39;100.00
10946;BME280;5525;42.648;23.368;2023-04-01T01:18:16;93736.41;;;10.25;100.00
10946;BME280;5525;42.648;23.368;2023-04-01T01:21:12;93730.75;;;10.31;100.00
10946;BME280;5525;42.648;23.368;2023-04-01T01:24:01;93736.44;;;10.41;100.00
10946;BME280;5525;42.648;23.368;2023-04-01T01:26:49;93738.44;;;10.44;100.00
10946;BME280;5525;42.648;23.368;2023-04-01T01:29:40;93733.28;;;10.67;100.00
10946;BME280;5525;42.648;23.368;2023-04-01T01:32:19;93716.28;;;10.66;100.00
10946;BME280;5525;42.648;23.368;2023-04-01T01:34:55;93717.34;;;10.77;100.00
10946;BME280;5525;42.648;23.368;2023-04-01T01:37:27;93707.00;;;10.64;100.00
10946;BME280;5525;42.648;23.368;2023-04-01T01:39:58;93695.41;;;10.79;100.00
10946;BME280;5525;42.648;23.368;2023-04-01T01:42:27;93706.47;;;10.89;100.00
10946;BME280;5525;42.648;23.368;2023-04-01T01:44:56;93713.00;;;10.88;100.00
10946;BME280;5525;42.648;23.368;2023-04-01T01:47:26;93718.41;;;10.73;100.00
10946;BME280;5525;42.648;23.368;2023-04-01T01:49:55;93708.81;;;10.75;100.00
10946;BME280;5525;42.648;23.368;2023-04-01T01:52:22;93705.25;;;10.71;100.00
10946;BME280;5525;42.648;23.368;2023-04-01T01:54:53;93709.41;;;10.84;100.00
10946;BME280;5525;42.648;23.368;2023-04-01T01:57:23;93693.75;;;10.74;100.00
10946;BME280;5525;42.648;23.368;2023-04-01T01:59:52;93676.59;;;10.82;100.00
10946;BME280;5525;42.648;23.368;2023-04-01T02:02:21;93676.91;;;10.96;100.00
10946;BME280;5525;42.648;23.368;2023-04-01T02:04:49;93688.53;;;10.97;100.00
10946;BME280;5525;42.648;23.368;2023-04-01T02:07:20;93685.91;;;10.85;100.00
10946;BME280;5525;42.648;23.368;2023-04-01T02:09:48;93678.31;;;10.90;100.00
10946;BME280;5525;42.648;23.368;2023-04-01T02:12:18;93676.16;;;10.96;100.00
10946;BME280;5525;42.648;23.368;2023-04-01T02:14:51;93668.75;;;11.08;100.00
10946;BME280;5525;42.648;23.368;2023-04-01T02:17:19;93680.41;;;11.12;100.00
10946;BME280;5525;42.648;23.368;2023-04-01T02:19:49;93669.44;;;11.21;100.00
10946;BME280;5525;42.648;23.368;2023-04-01T02:22:20;93670.38;;;11.28;100.00
10946;BME280;5525;42.648;23.368;2023-04-01T02:24:49;93667.09;;;11.38;100.00
10946;BME280;5525;42.648;23.368;2023-04-01T02:27:18;93664.41;;;11.38;100.00
10946;BME280;5525;42.648;23.368;2023-04-01T02:29:46;93662.16;;;11.40;98.88
10946;BME280;5525;42.648;23.368;2023-04-01T02:32:14;93656.34;;;11.57;98.12
10946;BME280;5525;42.648;23.368;2023-04-01T02:34:42;93675.09;;;11.66;96.04
10946;BME280;5525;42.648;23.368;2023-04-01T02:37:10;93665.28;;;11.77;97.43
10946;BME280;5525;42.648;23.368;2023-04-01T02:39:37;93670.63;;;11.58;100.00
10946;BME280;5525;42.648;23.368;2023-04-01T02:42:04;93664.44;;;11.57;100.00
10946;BME280;5525;42.648;23.368;2023-04-01T02:44:32;93673.63;;;11.53;100.00
10946;BME280;5525;42.648;23.368;2023-04-01T02:46:59;93686.72;;;11.35;100.00
10946;BME280;5525;42.648;23.368;2023-04-01T02:49:26;93684.13;;;11.39;100.00
10946;BME280;5525;42.648;23.368;2023-04-01T02:51:53;93681.25;;;11.32;100.00
10946;BME280;5525;42.648;23.368;2023-04-01T02:54:20;93675.25;;;11.23;100.00
10946;BME280;5525;42.648;23.368;2023-04-01T02:56:46;93691.81;;;11.21;100.00
10946;BME280;5525;42.648;23.368;2023-04-01T02:59:14;93682.47;;;11.34;100.00
10946;BME280;5525;42.648;23.368;2023-04-01T03:01:42;93681.78;;;11.37;100.00
10946;BME280;5525;42.648;23.368;2023-04-01T03:04:09;93709.84;;;11.33;100.00
10946;BME280;5525;42.648;23.368;2023-04-01T03:06:35;93703.56;;;11.13;100.00
10946;BME280;5525;42.648;23.368;2023-04-01T03:09:02;93702.88;;;11.16;100.00
10946;BME280;5525;42.648;23.368;2023-04-01T03:11:29;93703.56;;;11.13;100.00
10946;BME280;5525;42.648;23.368;2023-04-01T03:13:56;93703.50;;;10.94;100.00
10946;BME280;5525;42.648;23.368;2023-04-01T03:16:22;93713.78;;;11.20;100.00
10946;BME280;5525;42.648;23.368;2023-04-01T03:18:50;93711.41;;;11.18;100.00
10946;BME280;5525;42.648;23.368;2023-04-01T03:21:20;93709.41;;;11.31;100.00
10946;BME280;5525;42.648;23.368;2023-04-01T03:23:47;93714.56;;;11.36;100.00
10946;BME280;5525;42.648;23.368;2023-04-01T03:26:13;93712.91;;;11.31;100.00
10946;BME280;5525;42.648;23.368;2023-04-01T03:28:40;93727.88;;;11.29;100.00
10946;BME280;5525;42.648;23.368;2023-04-01T03:31:07;93727.47;;;10.96;100.00
10946;BME280;5525;42.648;23.368;2023-04-01T03:33:34;93710.38;;;10.92;100.00
10946;BME280;5525;42.648;23.368;2023-04-01T03:36:02;93706.91;;;11.07;100.00
10946;BME280;5525;42.648;23.368;2023-04-01T03:38:31;93714.91;;;11.19;100.00
10946;BME280;5525;42.648;23.368;2023-04-01T03:40:58;93718.56;;;10.80;100.00
10946;BME280;5525;42.648;23.368;2023-04-01T03:43:25;93699.22;;;10.93;100.00
10946;BME280;5525;42.648;23.368;2023-04-01T03:45:52;93690.25;;;10.89;100.00
10946;BME280;5525;42.648;23.368;2023-04-01T03:48:19;93696.47;;;10.90;100.00
10946;BME280;5525;42.648;23.368;2023-04-01T03:50:46;93686.34;;;10.87;100.00
10946;BME280;5525;42.648;23.368;2023-04-01T03:53:14;93672.31;;;10.81;100.00
10946;BME280;5525;42.648;23.368;2023-04-01T03:55:41;93667.84;;;11.04;100.00
10946;BME280;5525;42.648;23.368;2023-04-01T03:58:08;93643.28;;;11.09;100.00
10946;BME280;5525;42.648;23.368;2023-04-01T04:00:35;93641.78;;;11.12;100.00
10946;BME280;5525;42.648;23.368;2023-04-01T04:03:02;93622.78;;;11.24;100.00
10946;BME280;5525;42.648;23.368;2023-04-01T04:05:29;93606.28;;;11.29;100.00
10946;BME280;5525;42.648;23.368;2023-04-01T04:07:56;93620.16;;;11.27;100.00
10946;BME280;5525;42.648;23.368;2023-04-01T04:10:24;93623.91;;;11.23;100.00
10946;BME280;5525;42.648;23.368;2023-04-01T04:12:51;93605.97;;;11.15;100.00
10946;BME280;5525;42.648;23.368;2023-04-01T04:15:18;93600.34;;;11.04;100.00
10946;BME280;5525;42.648;23.368;2023-04-01T04:17:45;93591.47;;;11.04;100.00
10946;BME280;5525;42.648;23.368;2023-04-01T04:20:12;93587.72;;;11.08;100.00
10946;BME280;5525;42.648;23.368;2023-04-01T04:22:39;93581.16;;;11.09;100.00
10946;BME280;5525;42.648;23.368;2023-04-01T04:25:06;93580.53;;;11.16;100.00
10946;BME280;5525;42.648;23.368;2023-04-01T04:27:35;93587.59;;;11.20;100.00
10946;BME280;5525;42.648;23.368;2023-04-01T04:30:02;93572.94;;;11.21;100.00
10946;BME280;5525;42.648;23.368;2023-04-01T04:32:29;93583.47;;;11.26;100.00
10946;BME280;5525;42.648;23.368;2023-04-01T04:34:56;93574.56;;;11.26;100.00
10946;BME280;5525;42.648;23.368;2023-04-01T04:37:23;93565.00;;;11.28;100.00
10946;BME280;5525;42.648;23.368;2023-04-01T04:39:51;93558.94;;;11.35;100.00
10946;BME280;5525;42.648;23.368;2023-04-01T04:42:17;93555.88;;;11.36;100.00
10946;BME280;5525;42.648;23.368;2023-04-01T04:44:46;93544.69;;;11.38;100.00
10946;BME280;5525;42.648;23.368;2023-04-01T04:47:12;93542.31;;;11.33;100.00
10946;BME280;5525;42.648;23.368;2023-04-01T04:49:39;93534.19;;;11.33;100.00
10946;BME280;5525;42.648;23.368;2023-04-01T04:52:06;93530.78;;;11.36;100.00
10946;BME280;5525;42.648;23.368;2023-04-01T04:54:33;93532.13;;;11.45;100.00
10946;BME280;5525;42.648;23.368;2023-04-01T04:56:59;93521.72;;;11.47;100.00
10946;BME280;5525;42.648;23.368;2023-04-01T04:59:26;93513.06;;;11.57;100.00
10946;BME280;5525;42.648;23.368;2023-04-01T05:01:54;93521.03;;;11.50;100.00
10946;BME280;5525;42.648;23.368;2023-04-01T05:04:21;93526.00;;;11.29;100.00
10946;BME280;5525;42.648;23.368;2023-04-01T05:06:47;93532.53;;;11.09;100.00
10946;BME280;5525;42.648;23.368;2023-04-01T05:09:14;93509.97;;;10.83;100.00
10946;BME280;5525;42.648;23.368;2023-04-01T05:11:41;93525.19;;;10.91;100.00
10946;BME280;5525;42.648;23.368;2023-04-01T05:14:12;93526.03;;;10.95;100.00
10946;BME280;5525;42.648;23.368;2023-04-01T05:16:39;93515.66;;;10.97;100.00
10946;BME280;5525;42.648;23.368;2023-04-01T05:19:07;93516.69;;;11.08;100.00
10946;BME280;5525;42.648;23.368;2023-04-01T05:21:33;93506.00;;;10.96;100.00
10946;BME280;5525;42.648;23.368;2023-04-01T05:24:00;93509.47;;;10.96;100.00
10946;BME280;5525;42.648;23.368;2023-04-01T05:26:27;93500.59;;;10.61;100.00
10946;BME280;5525;42.648;23.368;2023-04-01T05:28:54;93497.00;;;10.38;100.00
10946;BME280;5525;42.648;23.368;2023-04-01T05:31:20;93491.56;;;10.54;100.00
10946;BME280;5525;42.648;23.368;2023-04-01T05:33:49;93489.28;;;10.71;100.00
10946;BME280;5525;42.648;23.368;2023-04-01T05:36:17;93502.16;;;10.78;100.00
10946;BME280;5525;42.648;23.368;2023-04-01T05:38:43;93501.25;;;10.89;100.00
10946;BME280;5525;42.648;23.368;2023-04-01T05:41:11;93477.94;;;11.00;100.00
10946;BME280;5525;42.648;23.368;2023-04-01T05:43:39;93498.69;;;11.15;100.00
10946;BME280;5525;42.648;23.368;2023-04-01T05:46:06;93508.44;;;11.20;100.00
10946;BME280;5525;42.648;23.368;2023-04-01T05:48:33;93509.28;;;11.05;100.00
10946;BME280;5525;42.648;23.368;2023-04-01T05:51:00;93510.78;;;11.02;100.00
10946;BME280;5525;42.648;23.368;2023-04-01T05:53:28;93496.16;;;11.22;100.00
10946;BME280;5525;42.648;23.368;2023-04-01T05:55:55;93494.38;;;11.30;100.00
10946;BME280;5525;42.648;23.368;2023-04-01T05:58:21;93467.88;;;11.58;100.00
10946;BME280;5525;42.648;23.368;2023-04-01T06:00:48;93472.09;;;11.97;100.00
10946;BME280;5525;42.648;23.368;2023-04-01T06:03:15;93471.44;;;12.52;96.92
10946;BME280;5525;42.648;23.368;2023-04-01T06:05:43;93460.53;;;13.01;88.98
10946;BME280;5525;42.648;23.368;2023-04-01T06:08:12;93464.44;;;13.36;85.26
10946;BME280;5525;42.648;23.368;2023-04-01T06:10:55;93472.78;;;13.91;85.20
10946;BME280;5525;42.648;23.368;2023-04-01T06:13:37;93475.00;;;14.18;82.63
10946;BME280;5525;42.648;23.368;2023-04-01T06:16:15;93471.00;;;14.49;81.23
10946;BME280;5525;42.648;23.368;2023-04-01T06:18:55;93476.59;;;14.66;76.97
10946;BME280;5525;42.648;23.368;2023-04-01T06:21:50;93469.19;;;14.67;77.14
10946;BME280;5525;42.648;23.368;2023-04-01T06:24:36;93469.34;;;14.91;74.59
10946;BME280;5525;42.648;23.368;2023-04-01T06:27:16;93464.69;;;14.34;75.61
10946;BME280;5525;42.648;23.368;2023-04-01T06:29:52;93444.78;;;14.23;77.09
10946;BME280;5525;42.648;23.368;2023-04-01T06:32:46;93464.13;;;14.62;75.29
10946;BME280;5525;42.648;23.368;2023-04-01T06:35:27;93464.41;;;15.07;72.74
10946;BME280;5525;42.648;23.368;2023-04-01T06:41:16;93463.41;;;14.72;74.40
10946;BME280;5525;42.648;23.368;2023-04-01T06:43:55;93443.91;;;14.59;75.28
10946;BME280;5525;42.648;23.368;2023-04-01T06:46:32;93439.44;;;14.30;77.95
10946;BME280;5525;42.648;23.368;2023-04-01T06:49:10;93451.66;;;14.10;79.92
10946;BME280;5525;42.648;23.368;2023-04-01T06:51:48;93442.56;;;13.92;82.18
10946;BME280;5525;42.648;23.368;2023-04-01T06:54:20;93432.59;;;13.63;87.22
10946;BME280;5525;42.648;23.368;2023-04-01T06:56:51;93437.44;;;13.47;91.16
10946;BME280;5525;42.648;23.368;2023-04-01T06:59:25;93434.41;;;13.15;95.56
10946;BME280;5525;42.648;23.368;2023-04-01T07:01:55;93422.50;;;13.27;97.02
10946;BME280;5525;42.648;23.368;2023-04-01T07:04:26;93425.47;;;13.48;95.67
10946;BME280;5525;42.648;23.368;2023-04-01T07:06:58;93411.88;;;13.44;97.23
10946;BME280;5525;42.648;23.368;2023-04-01T07:09:30;93408.84;;;13.49;96.62
10946;BME280;5525;42.648;23.368;2023-04-01T07:12:01;93420.16;;;13.25;99.37
10946;BME280;5525;42.648;23.368;2023-04-01T07:14:33;93427.56;;;13.28;100.00
10946;BME280;5525;42.648;23.368;2023-04-01T07:17:05;93425.50;;;13.51;100.00
10946;BME280;5525;42.648;23.368;2023-04-01T07:19:40;93415.75;;;13.47;100.00
10946;BME280;5525;42.648;23.368;2023-04-01T07:22:16;93400.84;;;13.64;98.83
10946;BME280;5525;42.648;23.368;2023-04-01T07:24:48;93399.31;;;13.66;99.54
10946;BME280;5525;42.648;23.368;2023-04-01T07:27:15;93418.47;;;13.84;99.96
10946;BME280;5525;42.648;23.368;2023-04-01T07:29:43;93416.63;;;13.95;97.76
10946;BME280;5525;42.648;23.368;2023-04-01T07:32:17;93416.19;;;13.89;97.57
10946;BME280;5525;42.648;23.368;2023-04-01T07:34:55;93405.31;;;14.29;94.72
10946;BME280;5525;42.648;23.368;2023-04-01T07:37:28;93411.25;;;14.49;92.24
10946;BME280;5525;42.648;23.368;2023-04-01T07:40:05;93425.66;;;14.56;93.29
10946;BME280;5525;42.648;23.368;2023-04-01T07:42:44;93412.97;;;14.20;95.33
10946;BME280;5525;42.648;23.368;2023-04-01T07:45:23;93416.22;;;13.93;95.44
10946;BME280;5525;42.648;23.368;2023-04-01T07:48:04;93409.00;;;14.11;95.78
10946;BME280;5525;42.648;23.368;2023-04-01T07:50:38;93399.47;;;14.27;94.65
10946;BME280;5525;42.648;23.368;2023-04-01T07:53:15;93408.09;;;14.40;94.09
10946;BME280;5525;42.648;23.368;2023-04-01T07:55:49;93401.50;;;14.41;93.43
10946;BME280;5525;42.648;23.368;2023-04-01T07:58:23;93398.44;;;14.46;93.32
10946;BME280;5525;42.648;23.368;2023-04-01T08:00:59;93409.88;;;14.22;95.68
10946;BME280;5525;42.648;23.368;2023-04-01T08:03:43;93415.41;;;13.89;98.21
10946;BME280;5525;42.648;23.368;2023-04-01T08:06:19;93404.97;;;13.91;99.83
10946;BME280;5525;42.648;23.368;2023-04-01T08:08:58;93393.66;;;13.82;98.80
10946;BME280;5525;42.648;23.368;2023-04-01T08:11:35;93388.72;;;13.98;99.02
10946;BME280;5525;42.648;23.368;2023-04-01T08:14:12;93390.03;;;14.18;97.32
10946;BME280;5525;42.648;23.368;2023-04-01T08:16:52;93373.13;;;14.31;96.34
10946;BME280;5525;42.648;23.368;2023-04-01T08:19:31;93382.63;;;14.62;
10946;BME280;5525;42.648;23.368;2023-04-01T08:22:09;93380.44;;;14.92;92.93
10946;BME280;5525;42.648;23.368;2023-04-01T08:24:41;93368.84;;;15.05;89.39
10946;BME280;5525;42.648;23.368;2023-04-01T08:27:12;93365.84;;;15.32;85.79
10946;BME280;5525;42.648;23.368;2023-04-01T08:29:46;93354.28;;;15.56;83.62
10946;BME280;5525;42.648;23.368;2023-04-01T08:32:20;93352.38;;;15.77;80.74
10946;BME280;5525;42.648;23.368;2023-04-01T08:34:55;93339.91;;;15.80;81.07
10946;BME280;5525;42.648;23.368;2023-04-01T08:37:28;93328.97;;;15.38;81.81
10946;BME280;5525;42.648;23.368;2023-04-01T08:39:58;93324.75;;;15.75;81.03
10946;BME280;5525;42.648;23.368;2023-04-01T08:42:46;93315.81;;;15.92;79.65
10946;BME280;5525;42.648;23.368;2023-04-01T08:45:38;93299.47;;;15.99;78.87
10946;BME280;5525;42.648;23.368;2023-04-01T08:48:30;93301.31;;;16.72;74.74
10946;BME280;5525;42.648;23.368;2023-04-01T08:51:27;93300.50;;;16.75;72.49
10946;BME280;5525;42.648;23.368;2023-04-01T08:54:12;93291.56;;;16.75;71.54
10946;BME280;5525;42.648;23.368;2023-04-01T08:56:52;93287.97;;;16.88;70.56
10946;BME280;5525;42.648;23.368;2023-04-01T08:59:32;93290.13;;;16.25;72.45
10946;BME280;5525;42.648;23.368;2023-04-01T09:02:25;93301.16;;;17.11;69.11
10946;BME280;5525;42.648;23.368;2023-04-01T09:05:18;93311.78;;;16.77;67.21
10946;BME280;5525;42.648;23.368;2023-04-01T09:07:56;93298.50;;;16.94;68.83
10946;BME280;5525;42.648;23.368;2023-04-01T09:10:46;93288.19;;;17.26;66.24
10946;BME280;5525;42.648;23.368;2023-04-01T09:13:28;93299.81;;;17.40;65.81
10946;BME280;5525;42.648;23.368;2023-04-01T09:16:20;93302.69;;;17.12;66.80
10946;BME280;5525;42.648;23.368;2023-04-01T09:19:23;93301.78;;;16.32;69.76
10946;BME280;5525;42.648;23.368;2023-04-01T09:22:07;93294.09;;;17.14;65.73
10946;BME280;5525;42.648;23.368;2023-04-01T09:25:06;93287.78;;;17.31;63.31
10946;BME280;5525;42.648;23.368;2023-04-01T09:27:44;93283.47;;;17.33;61.72
10946;BME280;5525;42.648;23.368;2023-04-01T09:30:32;93268.13;;;17.60;60.95
10946;BME280;5525;42.648;23.368;2023-04-01T09:36:21;93266.44;;;17.77;58.94
10946;BME280;5525;42.648;23.368;2023-04-01T09:38:56;93267.66;;;17.69;59.65
10946;BME280;5525;42.648;23.368;2023-04-01T09:41:29;93255.75;;;17.42;59.76
10946;BME280;5525;42.648;23.368;2023-04-01T09:44:06;93268.16;;;17.57;58.63
10946;BME280;5525;42.648;23.368;2023-04-01T09:46:48;93248.88;;;17.78;57.20
10946;BME280;5525;42.648;23.368;2023-04-01T09:49:47;93248.25;;;18.04;55.31
10946;BME280;5525;42.648;23.368;2023-04-01T09:52:24;93243.19;;;18.02;53.58
10946;BME280;5525;42.648;23.368;2023-04-01T09:55:14;93235.78;;;18.03;54.18
10946;BME280;5525;42.648;23.368;2023-04-01T09:58:11;93228.19;;;18.21;53.78
10946;BME280;5525;42.648;23.368;2023-04-01T10:00:55;93231.47;;;18.46;53.22
10946;BME280;5525;42.648;23.368;2023-04-01T10:04:08;93227.31;;;18.31;52.74
10946;BME280;5525;42.648;23.368;2023-04-01T10:06:56;93229.56;;;18.36;53.18
10946;BME280;5525;42.648;23.368;2023-04-01T10:09:55;93235.03;;;18.39;53.73
10946;BME280;5525;42.648;23.368;2023-04-01T10:16:05;93217.00;;;18.45;53.87
10946;BME280;5525;42.648;23.368;2023-04-01T10:19:07;93215.75;;;18.13;55.22
10946;BME280;5525;42.648;23.368;2023-04-01T10:21:59;93197.06;;;18.11;55.87
10946;BME280;5525;42.648;23.368;2023-04-01T10:25:05;93198.28;;;18.07;56.34
10946;BME280;5525;42.648;23.368;2023-04-01T10:27:52;93193.00;;;17.89;56.25
10946;BME280;5525;42.648;23.368;2023-04-01T10:33:38;93212.03;;;17.96;57.32
10946;BME280;5525;42.648;23.368;2023-04-01T10:36:47;93199.69;;;17.85;57.93
10946;BME280;5525;42.648;23.368;2023-04-01T10:39:33;93186.16;;;17.67;58.68
10946;BME280;5525;42.648;23.368;2023-04-01T10:42:15;93172.63;;;17.57;58.97
10946;BME280;5525;42.648;23.368;2023-04-01T10:48:07;93179.69;;;17.51;60.85
10946;BME280;5525;42.648;23.368;2023-04-01T10:51:08;93183.28;;;17.37;61.15
10946;BME280;5525;42.648;23.368;2023-04-01T10:53:45;93179.31;;;16.91;62.43
10946;BME280;5525;42.648;23.368;2023-04-01T10:56:33;93173.94;;;16.76;63.70
10946;BME280;5525;42.648;23.368;2023-04-01T10:59:28;93159.19;;;16.70;64.39
10946;BME280;5525;42.648;23.368;2023-04-01T11:02:54;93154.91;;;16.69;65.04
10946;BME280;5525;42.648;23.368;2023-04-01T11:05:59;93163.84;;;16.77;62.09
10946;BME280;5525;42.648;23.368;2023-04-01T11:09:07;93149.81;;;16.78;63.21
10946;BME280;5525;42.648;23.368;2023-04-01T11:14:55;93154.19;;;17.20;57.71
10946;BME280;5525;42.648;23.368;2023-04-01T11:20:45;93141.56;;;17.40;48.08
10946;BME280;5525;42.648;23.368;2023-04-01T11:26:44;93154.44;;;17.36;51.60
10946;BME280;5525;42.648;23.368;2023-04-01T11:29:51;93167.63;;;17.48;48.70
10946;BME280;5525;42.648;23.368;2023-04-01T11:35:26;93180.03;;;17.02;51.94
10946;BME280;5525;42.648;23.368;2023-04-01T11:38:02;93187.94;;;16.82;53.12
10946;BME280;5525;42.648;23.368;2023-04-01T11:40:38;93199.66;;;16.75;54.16
10946;BME280;5525;42.648;23.368;2023-04-01T11:43:15;93214.53;;;16.60;58.25
10946;BME280;5525;42.648;23.368;2023-04-01T11:45:49;93292.41;;;15.35;87.06
10946;BME280;5525;42.648;23.368;2023-04-01T11:48:26;93280.91;;;14.49;100.00
10946;BME280;5525;42.648;23.368;2023-04-01T11:51:07;93323.31;;;13.59;100.00
10946;BME280;5525;42.648;23.368;2023-04-01T11:53:44;93354.78;;;13.30;100.00
10946;BME280;5525;42.648;23.368;2023-04-01T11:56:37;93369.78;;;12.88;100.00
10946;BME280;5525;42.648;23.368;2023-04-01T11:59:37;93383.78;;;12.08;100.00
10946;BME280;5525;42.648;23.368;2023-04-01T12:02:11;93418.66;;;11.68;100.00
10946;BME280;5525;42.648;23.368;2023-04-01T12:04:54;93431.41;;;11.48;100.00
10946;BME280;5525;42.648;23.368;2023-04-01T12:07:32;93417.47;;;11.46;100.00
10946;BME280;5525;42.648;23.368;2023-04-01T12:10:10;93391.53;;;11.42;100.00
10946;BME280;5525;42.648;23.368;2023-04-01T12:12:48;93400.34;;;11.39;100.00
10946;BME280;5525;42.648;23.368;2023-04-01T12:15:29;93424.25;;;11.37;100.00
10946;BME280;5525;42.648;23.368;2023-04-01T12:18:03;93413.97;;;11.46;100.00
10946;BME280;5525;42.648;23.368;2023-04-01T12:20:45;93414.59;;;11.58;100.00
10946;BME280;5525;42.648;23.368;2023-04-01T12:23:29;93413.88;;;11.61;100.00
10946;BME280;5525;42.648;23.368;2023-04-01T12:26:16;93405.94;;;11.68;100.00
10946;BME280;5525;42.648;23.368;2023-04-01T12:28:57;93387.34;;;11.89;100.00
10946;BME280;5525;42.648;23.368;2023-04-01T12:31:34;93395.06;;;12.69;100.00
10946;BME280;5525;42.648;23.368;2023-04-01T12:34:22;93384.38;;;12.80;100.00
10946;BME280;5525;42.648;23.368;2023-04-01T12:37:02;93389.53;;;13.21;100.00
10946;BME280;5525;42.648;23.368;2023-04-01T12:39:51;93406.66;;;12.96;100.00
10946;BME280;5525;42.648;23.368;2023-04-01T12:42:39;93406.09;;;12.83;100.00
10946;BME280;5525;42.648;23.368;2023-04-01T12:45:33;93421.22;;;12.58;100.00
10946;BME280;5525;42.648;23.368;2023-04-01T12:51:11;93421.22;;;12.06;100.00
10946;BME280;5525;42.648;23.368;2023-04-01T12:54:08;93411.66;;;11.67;100.00
10946;BME280;5525;42.648;23.368;2023-04-01T12:56:49;93405.88;;;11.65;100.00
10946;BME280;5525;42.648;23.368;2023-04-01T12:59:32;93409.94;;;11.78;100.00
10946;BME280;5525;42.648;23.368;2023-04-01T13:02:18;93402.69;;;11.82;100.00
10946;BME280;5525;42.648;23.368;2023-04-01T13:05:18;93400.38;;;11.84;100.00
10946;BME280;5525;42.648;23.368;2023-04-01T13:07:53;93384.13;;;11.80;100.00
10946;BME280;5525;42.648;23.368;2023-04-01T13:10:43;93369.69;;;11.73;100.00
10946;BME280;5525;42.648;23.368;2023-04-01T13:13:31;93355.31;;;11.69;100.00
10946;BME280;5525;42.648;23.368;2023-04-01T13:16:06;93362.94;;;11.86;100.00
10946;BME280;5525;42.648;23.368;2023-04-01T13:18:48;93327.25;;;12.29;100.00
10946;BME280;5525;42.648;23.368;2023-04-01T13:21:26;93298.38;;;12.70;100.00
10946;BME280;5525;42.648;23.368;2023-04-01T13:24:00;93301.03;;;13.39;100.00
10946;BME280;5525;42.648;23.368;2023-04-01T13:26:35;93301.44;;;14.46;100.00
10946;BME280;5525;42.648;23.368;2023-04-01T13:29:10;93300.13;;;15.05;100.00
10946;BME280;5525;42.648;23.368;2023-04-01T13:31:50;93300.66;;;15.63;100.00
10946;BME280;5525;42.648;23.368;2023-04-01T13:34:30;93289.72;;;16.05;100.00
10946;BME280;5525;42.648;23.368;2023-04-01T13:37:10;93277.53;;;16.73;100.00
10946;BME280;5525;42.648;23.368;2023-04-01T13:39:49;93272.50;;;16.64;100.00
10946;BME280;5525;42.648;23.368;2023-04-01T13:42:23;93276.81;;;16.62;100.00
10946;BME280;5525;42.648;23.368;2023-04-01T13:44:59;93271.63;;;16.88;100.00
10946;BME280;5525;42.648;23.368;2023-04-01T13:50:53;93256.59;;;16.45;100.00
10946;BME280;5525;42.648;23.368;2023-04-01T13:53:36;93254.56;;;16.70;100.00
10946;BME280;5525;42.648;23.368;2023-04-01T13:56:15;93267.56;;;17.21;100.00
10946;BME280;5525;42.648;23.368;2023-04-01T13:58:56;93263.25;;;17.24;100.00
10946;BME280;5525;42.648;23.368;2023-04-01T14:01:32;93255.81;;;16.55;100.00
10946;BME280;5525;42.648;23.368;2023-04-01T14:04:20;93249.13;;;16.70;100.00
10946;BME280;5525;42.648;23.368;2023-04-01T14:07:00;93231.28;;;16.55;97.54
10946;BME280;5525;42.648;23.368;2023-04-01T14:09:45;93230.22;;;16.07;100.00
10946;BME280;5525;42.648;23.368;2023-04-01T14:12:26;93223.25;;;15.85;100.00
10946;BME280;5525;42.648;23.368;2023-04-01T14:15:09;93222.09;;;15.83;100.00